createdAt,value
2022-10-22T00:01:01.778Z,100118.65
2022-10-22T00:04:33.000Z,100117.23
2022-10-22T00:08:06.708Z,100115.73
2022-10-22T00:11:33.562Z,100115.55
2022-10-22T00:15:02.152Z,100115.14
2022-10-22T00:18:29.467Z,100115.47
2022-10-22T00:21:56.578Z,100118.89
2022-10-22T00:25:23.225Z,100114.77
2022-10-22T00:28:50.032Z,100114.94
2022-10-22T00:32:16.919Z,100110.70
2022-10-22T00:35:45.714Z,100111.10
2022-10-22T00:39:13.481Z,100107.70
2022-10-22T00:42:42.008Z,100111.52
2022-10-22T00:46:08.974Z,100108.83
2022-10-22T00:49:35.934Z,100105.12
2022-10-22T00:53:04.350Z,100101.73
2022-10-22T00:56:31.169Z,100097.40
2022-10-22T00:59:59.106Z,100098.30
2022-10-22T01:03:26.029Z,100095.53
2022-10-22T01:06:55.697Z,100091.81
2022-10-22T01:10:38.898Z,100088.71
2022-10-22T01:14:15.155Z,100081.62
2022-10-22T01:17:52.086Z,100078.46
2022-10-22T01:21:28.306Z,100074.35
2022-10-22T01:25:07.361Z,100070.17
2022-10-22T01:28:54.696Z,100070.63
2022-10-22T01:32:24.016Z,100067.52
2022-10-22T01:35:51.828Z,100064.52
2022-10-22T01:39:20.978Z,100064.92
2022-10-22T01:43:00.536Z,100069.19
2022-10-22T01:46:29.758Z,100070.56
2022-10-22T01:50:19.209Z,100073.29
2022-10-22T01:53:55.157Z,100066.52
2022-10-22T01:57:30.954Z,100059.75
2022-10-22T02:01:07.174Z,100056.45
2022-10-22T02:04:41.015Z,100051.73
2022-10-22T02:08:11.264Z,100047.92
2022-10-22T02:11:38.373Z,100051.60
2022-10-22T02:15:07.056Z,100053.84
2022-10-22T02:18:38.859Z,100055.15
2022-10-22T02:22:07.088Z,100053.71
2022-10-22T02:25:37.932Z,100052.67
2022-10-22T02:29:09.858Z,100052.23
2022-10-22T02:32:43.602Z,100048.36
2022-10-22T02:36:12.879Z,100049.20
2022-10-22T02:39:40.545Z,100046.11
2022-10-22T02:43:08.831Z,100038.56
2022-10-22T02:46:36.661Z,100036.02
2022-10-22T02:50:06.549Z,100040.60
2022-10-22T02:53:36.604Z,100041.91
2022-10-22T02:57:03.965Z,100034.41
2022-10-22T03:00:31.577Z,100035.73
2022-10-22T03:03:58.217Z,100037.02
2022-10-22T03:07:25.384Z,100045.71
2022-10-22T03:10:52.393Z,100050.45
2022-10-22T03:14:19.807Z,100053.23
2022-10-22T03:17:48.514Z,100061.38
2022-10-22T03:21:22.674Z,100065.67
2022-10-22T03:24:54.338Z,100067.69
2022-10-22T03:28:22.051Z,100085.66
2022-10-22T03:31:49.095Z,100086.52
2022-10-22T03:35:15.942Z,100079.01
2022-10-22T03:38:44.125Z,100077.92
2022-10-22T03:42:11.860Z,100076.55
2022-10-22T03:49:09.648Z,100059.78
2022-10-22T03:52:41.282Z,100059.74
2022-10-22T03:56:12.018Z,100063.91
2022-10-22T03:59:41.240Z,100063.67
2022-10-22T04:03:07.940Z,100074.35
2022-10-22T04:06:34.856Z,100082.68
2022-10-22T04:10:01.985Z,100087.27
2022-10-22T04:13:29.225Z,100081.30
2022-10-22T04:16:56.839Z,100076.59
2022-10-22T04:20:23.860Z,100074.89
2022-10-22T04:23:52.292Z,100064.44
2022-10-22T04:27:19.189Z,100062.29
2022-10-22T04:30:45.882Z,100058.88
2022-10-22T04:34:13.704Z,100048.24
2022-10-22T04:37:40.707Z,100046.52
2022-10-22T04:41:15.874Z,100043.20
2022-10-22T04:44:42.718Z,100035.86
2022-10-22T04:48:12.695Z,100038.27
2022-10-22T04:51:39.440Z,100037.48
2022-10-22T04:55:06.381Z,100040.15
2022-10-22T04:58:32.670Z,100042.25
2022-10-22T05:02:00.233Z,100039.04
2022-10-22T05:05:27.394Z,100037.61
2022-10-22T05:08:58.504Z,100037.90
2022-10-22T05:12:26.511Z,100047.49
2022-10-22T05:15:53.017Z,100055.42
2022-10-22T05:19:24.246Z,100057.61
2022-10-22T05:22:51.061Z,100058.97
2022-10-22T05:26:20.132Z,100068.44
2022-10-22T05:29:46.549Z,100071.79
2022-10-22T05:33:17.965Z,100083.45
2022-10-22T05:36:47.577Z,100091.03
2022-10-22T05:40:26.732Z,100098.67
2022-10-22T05:44:00.276Z,100095.88
2022-10-22T05:47:27.064Z,100093.95
2022-10-22T05:50:53.762Z,100095.60
2022-10-22T05:54:22.416Z,100094.52
2022-10-22T05:57:50.426Z,100095.20
2022-10-22T06:01:18.548Z,100098.42
2022-10-22T06:04:45.408Z,100091.27
2022-10-22T06:08:18.257Z,100089.70
2022-10-22T06:11:43.697Z,100088.23
2022-10-22T06:15:13.575Z,100087.30
2022-10-22T06:18:40.067Z,100090.48
2022-10-22T06:22:07.013Z,100094.55
2022-10-22T06:25:33.494Z,100099.40
2022-10-22T06:29:00.746Z,100101.11
2022-10-22T06:32:27.336Z,100101.84
2022-10-22T06:35:54.209Z,100112.84
2022-10-22T06:39:21.043Z,100120.56
2022-10-22T06:42:48.580Z,100126.42
2022-10-22T06:46:19.066Z,100130.26
2022-10-22T06:49:46.729Z,100131.00
2022-10-22T06:53:13.447Z,100133.75
2022-10-22T06:56:40.479Z,100136.20
2022-10-22T07:00:09.428Z,100146.64
2022-10-22T07:03:36.525Z,100151.06
2022-10-22T07:07:03.393Z,100159.53
2022-10-22T07:10:30.852Z,100160.62
2022-10-22T07:13:59.470Z,100164.07
2022-10-22T07:17:26.512Z,100172.79
2022-10-22T07:20:53.625Z,100172.90
2022-10-22T07:24:19.935Z,100181.84
2022-10-22T07:27:46.772Z,100179.39
2022-10-22T07:31:16.092Z,100186.07
2022-10-22T07:34:43.911Z,100194.64
2022-10-22T07:38:14.486Z,100189.85
2022-10-22T07:41:41.141Z,100187.29
2022-10-22T07:45:09.626Z,100188.40
2022-10-22T07:48:36.827Z,100186.20
2022-10-22T07:52:04.230Z,100179.14
2022-10-22T07:55:35.313Z,100179.72
2022-10-22T08:02:29.164Z,100181.93
2022-10-22T08:05:57.245Z,100179.35
2022-10-22T08:09:24.135Z,100183.96
2022-10-22T08:12:51.149Z,100188.72
2022-10-22T08:16:18.203Z,100183.73
2022-10-22T08:19:44.756Z,100177.45
2022-10-22T08:23:14.313Z,100175.48
2022-10-22T08:26:43.683Z,100175.02
2022-10-22T08:30:13.551Z,100185.70
2022-10-22T08:33:43.533Z,100186.44
2022-10-22T08:37:14.455Z,100186.42
2022-10-22T08:40:44.235Z,100187.02
2022-10-22T08:44:31.819Z,100189.95
2022-10-22T08:48:11.894Z,100191.02
2022-10-22T08:51:43.279Z,100187.67
2022-10-22T08:55:17.090Z,100181.37
2022-10-22T08:58:50.922Z,100170.51
2022-10-22T09:02:21.730Z,100159.60
2022-10-22T09:05:56.925Z,100147.05
2022-10-22T09:09:28.145Z,100152.50
2022-10-22T09:12:55.320Z,100151.92
2022-10-22T09:16:25.874Z,100165.70
2022-10-22T09:20:04.508Z,100168.83
2022-10-22T09:23:39.950Z,100168.16
2022-10-22T09:27:16.037Z,100158.27
2022-10-22T09:30:43.752Z,100166.22
2022-10-22T09:34:10.152Z,100172.09
2022-10-22T09:37:37.249Z,100179.11
2022-10-22T09:41:05.386Z,100175.07
2022-10-22T09:44:37.649Z,100186.15
2022-10-22T09:48:19.463Z,100191.17
2022-10-22T09:51:53.322Z,100202.28
2022-10-22T09:55:21.714Z,100201.13
2022-10-22T09:58:52.239Z,100203.85
2022-10-22T10:02:39.218Z,100206.34
2022-10-22T10:06:07.561Z,100211.21
2022-10-22T10:09:36.755Z,100221.75
2022-10-22T10:13:13.274Z,100225.73
2022-10-22T10:16:57.124Z,100235.14
2022-10-22T10:20:35.078Z,100231.79
2022-10-22T10:24:11.991Z,100228.61
2022-10-22T10:27:42.454Z,100225.69
2022-10-22T10:31:32.948Z,100217.92
2022-10-22T10:35:15.861Z,100210.65
2022-10-22T10:38:49.848Z,100205.02
2022-10-22T10:42:25.090Z,100208.46
2022-10-22T10:46:03.100Z,100209.75
2022-10-22T10:49:32.768Z,100219.61
2022-10-22T10:53:08.362Z,100224.42
2022-10-22T10:56:46.482Z,100225.93
2022-10-22T11:00:19.938Z,100221.51
2022-10-22T11:04:05.320Z,100222.20
2022-10-22T11:07:39.399Z,100224.70
2022-10-22T11:11:12.880Z,100224.96
2022-10-22T11:14:49.013Z,100220.12
2022-10-22T11:18:23.629Z,100217.81
2022-10-22T11:21:55.191Z,100216.38
2022-10-22T11:25:26.866Z,100217.00
2022-10-22T11:28:59.234Z,100219.91
2022-10-22T11:32:27.746Z,100221.48
2022-10-22T11:35:55.600Z,100220.00
2022-10-22T11:39:40.650Z,100217.75
2022-10-22T11:43:10.910Z,100217.39
2022-10-22T11:46:49.022Z,100213.70
2022-10-22T11:50:28.180Z,100214.91
2022-10-22T11:53:59.273Z,100215.44
2022-10-22T11:57:30.577Z,100213.02
2022-10-22T12:00:58.887Z,100209.48
2022-10-22T12:04:43.548Z,100212.64
2022-10-22T12:08:25.242Z,100210.41
2022-10-22T12:11:55.983Z,100211.77
2022-10-22T12:15:28.849Z,100208.98
2022-10-22T12:19:03.294Z,100209.30
2022-10-22T12:22:31.922Z,100204.13
2022-10-22T12:25:58.599Z,100203.18
2022-10-22T12:29:31.727Z,100199.67
2022-10-22T12:33:01.286Z,100193.70
2022-10-22T12:36:30.947Z,100189.13
2022-10-22T12:39:59.228Z,100189.05
2022-10-22T12:43:30.633Z,100187.98
2022-10-22T12:46:58.143Z,100185.83
2022-10-22T12:50:30.851Z,100189.08
2022-10-22T12:54:01.743Z,100189.14
2022-10-22T12:57:30.179Z,100191.10
2022-10-22T13:01:02.355Z,100193.57
2022-10-22T13:04:38.014Z,100189.78
2022-10-22T13:08:10.797Z,100190.00
2022-10-22T13:11:42.980Z,100187.41
2022-10-22T13:15:47.504Z,100180.72
2022-10-22T13:19:42.165Z,100182.79
2022-10-22T13:23:29.268Z,100187.20
2022-10-22T13:27:00.254Z,100188.70
2022-10-22T13:30:33.452Z,100187.45
2022-10-22T13:34:11.913Z,100185.05
2022-10-22T13:37:45.151Z,100184.77
2022-10-22T13:41:25.023Z,100180.03
2022-10-22T13:44:53.817Z,100179.49
2022-10-22T13:48:52.102Z,100180.04
2022-10-22T13:52:32.458Z,100177.66
2022-10-22T13:56:00.246Z,100178.11
2022-10-22T13:59:31.075Z,100175.99
2022-10-22T14:03:01.717Z,100180.61
2022-10-22T14:10:16.804Z,100183.41
2022-10-22T14:13:45.132Z,100192.88
2022-10-22T14:17:17.065Z,100194.05
2022-10-22T14:20:45.215Z,100196.79
2022-10-22T14:24:14.210Z,100200.95
2022-10-22T14:27:41.291Z,100204.38
2022-10-22T14:31:10.824Z,100203.73
2022-10-22T14:34:37.922Z,100205.29
2022-10-22T14:38:06.923Z,100211.35
2022-10-22T14:41:34.064Z,100214.80
2022-10-22T14:45:01.620Z,100211.67
2022-10-22T14:48:28.919Z,100217.33
2022-10-22T14:51:56.448Z,100218.63
2022-10-22T14:55:26.536Z,100220.53
2022-10-22T14:58:55.873Z,100224.02
2022-10-22T15:02:24.473Z,100222.30
2022-10-22T15:05:57.261Z,100222.56
2022-10-22T15:09:28.409Z,100226.97
2022-10-22T15:12:55.611Z,100225.05
2022-10-22T15:16:22.552Z,100222.30
2022-10-22T15:19:49.995Z,100220.22
2022-10-22T15:23:16.978Z,100222.42
2022-10-22T15:26:44.727Z,100231.19
2022-10-22T15:30:14.588Z,100229.88
2022-10-22T15:33:46.163Z,100232.20
2022-10-22T15:37:15.296Z,100235.06
2022-10-22T15:40:42.431Z,100233.03
2022-10-22T15:44:09.998Z,100236.02
2022-10-22T15:47:37.278Z,100243.44
2022-10-22T15:51:08.727Z,100250.90
2022-10-22T15:54:36.286Z,100253.89
2022-10-22T15:58:04.297Z,100255.24
2022-10-22T16:01:33.245Z,100259.02
2022-10-22T16:08:45.674Z,100271.00
2022-10-22T16:12:15.382Z,100274.41
2022-10-22T16:15:45.752Z,100281.02
2022-10-22T16:19:14.032Z,100284.69
2022-10-22T16:22:41.284Z,100290.41
2022-10-22T16:26:08.987Z,100295.17
2022-10-22T16:29:35.864Z,100295.48
2022-10-22T16:33:03.561Z,100298.73
2022-10-22T16:36:30.778Z,100301.08
2022-10-22T16:39:58.301Z,100304.17
2022-10-22T16:43:24.912Z,100306.14
2022-10-22T16:46:52.020Z,100307.20
2022-10-22T16:50:19.941Z,100308.45
2022-10-22T16:53:47.974Z,100310.29
2022-10-22T16:57:16.187Z,100310.04
2022-10-22T17:00:43.756Z,100309.48
2022-10-22T17:04:11.754Z,100306.20
2022-10-22T17:07:40.484Z,100319.94
2022-10-22T17:11:11.743Z,100314.77
2022-10-22T17:14:38.902Z,100324.02
2022-10-22T17:18:06.410Z,100326.91
2022-10-22T17:21:34.539Z,100328.27
2022-10-22T17:25:13.466Z,100327.77
2022-10-22T17:28:40.947Z,100332.81
2022-10-22T17:32:07.508Z,100328.93
2022-10-22T17:35:35.055Z,100335.23
2022-10-22T17:39:04.655Z,100338.52
2022-10-22T17:42:31.705Z,100342.35
2022-10-22T17:46:07.610Z,100347.20
2022-10-22T17:49:36.043Z,100348.89
2022-10-22T17:53:05.405Z,100349.79
2022-10-22T17:56:33.072Z,100348.95
2022-10-22T18:00:01.970Z,100348.83
2022-10-22T18:03:32.498Z,100350.05
2022-10-22T18:07:03.345Z,100350.39
2022-10-22T18:10:32.329Z,100346.22
2022-10-22T18:14:08.068Z,100351.41
2022-10-22T18:17:37.256Z,100359.20
2022-10-22T18:21:08.939Z,100362.89
2022-10-22T18:24:36.588Z,100357.98
2022-10-22T18:28:03.690Z,100358.99
2022-10-22T18:31:32.254Z,100363.95
2022-10-22T18:35:02.559Z,100363.44
2022-10-22T18:38:29.948Z,100366.48
2022-10-22T18:41:56.904Z,100364.73
2022-10-22T18:45:25.099Z,100363.06
2022-10-22T18:48:58.239Z,100361.03
2022-10-22T18:52:25.326Z,100359.14
2022-10-22T18:55:53.168Z,100363.27
2022-10-22T18:59:22.717Z,100367.83
2022-10-22T19:02:51.011Z,100373.27
2022-10-22T19:06:34.374Z,100375.80
2022-10-22T19:10:05.489Z,100384.23
2022-10-22T19:13:37.821Z,100382.99
2022-10-22T19:17:05.568Z,100385.17
2022-10-22T19:20:33.233Z,100382.45
2022-10-22T19:24:02.416Z,100385.64
2022-10-22T19:27:32.762Z,100388.10
2022-10-22T19:31:00.985Z,100392.73
2022-10-22T19:34:30.982Z,100390.46
2022-10-22T19:37:58.432Z,100393.64
2022-10-22T19:41:28.659Z,100401.94
2022-10-22T19:44:56.645Z,100406.73
2022-10-22T19:48:23.889Z,100412.20
2022-10-22T19:51:51.218Z,100409.07
2022-10-22T19:55:18.829Z,100416.11
2022-10-22T19:58:48.882Z,100418.33
2022-10-22T20:02:20.601Z,100418.46
2022-10-22T20:05:54.834Z,100418.42
2022-10-22T20:09:22.247Z,100424.00
2022-10-22T20:12:50.375Z,100431.69
2022-10-22T20:16:21.229Z,100437.91
2022-10-22T20:19:50.420Z,100447.73
2022-10-22T20:23:22.699Z,100449.60
2022-10-22T20:26:50.620Z,100453.48
2022-10-22T20:30:20.715Z,100459.24
2022-10-22T20:33:54.147Z,100459.52
2022-10-22T20:37:21.899Z,100463.93
2022-10-22T20:40:49.888Z,100466.88
2022-10-22T20:44:18.860Z,100472.06
2022-10-22T20:47:51.721Z,100470.77
2022-10-22T20:51:26.310Z,100473.75
2022-10-22T20:54:58.471Z,100475.95
2022-10-22T20:58:27.061Z,100476.68
2022-10-22T21:02:02.103Z,100474.73
2022-10-22T21:05:34.911Z,100488.99
2022-10-22T21:09:07.796Z,100494.57
2022-10-22T21:12:36.404Z,100494.17
2022-10-22T21:16:10.897Z,100497.21
2022-10-22T21:19:38.834Z,100502.17
2022-10-22T21:23:07.596Z,100504.33
2022-10-22T21:26:38.934Z,100506.60
2022-10-22T21:30:08.666Z,100510.95
2022-10-22T21:33:39.256Z,100512.58
2022-10-22T21:37:09.253Z,100515.06
2022-10-22T21:40:41.205Z,100515.79
2022-10-22T21:44:14.475Z,100518.27
2022-10-22T21:47:45.315Z,100509.12
2022-10-22T21:51:15.520Z,100521.98
2022-10-22T21:54:43.329Z,100525.48
2022-10-22T21:58:11.066Z,100520.19
2022-10-22T22:01:39.219Z,100527.55
2022-10-22T22:05:07.258Z,100528.66
2022-10-22T22:08:35.688Z,100527.42
2022-10-22T22:12:02.798Z,100523.27
2022-10-22T22:15:31.896Z,100524.04
2022-10-22T22:19:00.202Z,100525.27
2022-10-22T22:22:28.169Z,100522.83
2022-10-22T22:25:59.968Z,100526.31
2022-10-22T22:29:28.165Z,100521.19
2022-10-22T22:32:55.355Z,100519.75
2022-10-22T22:36:22.686Z,100522.51
2022-10-22T22:39:49.889Z,100523.42
2022-10-22T22:43:17.462Z,100521.85
2022-10-22T22:46:45.949Z,100530.70
2022-10-22T22:50:13.467Z,100534.02
2022-10-22T22:53:41.208Z,100533.84
2022-10-22T22:57:08.638Z,100530.88
2022-10-22T23:00:35.971Z,100541.69
2022-10-22T23:04:06.349Z,100551.88
2022-10-22T23:07:33.841Z,100555.67
2022-10-22T23:11:07.985Z,100558.38
2022-10-22T23:14:35.089Z,100558.43
2022-10-22T23:18:02.538Z,100565.24
2022-10-22T23:21:31.196Z,100560.73
2022-10-22T23:24:58.798Z,100559.75
2022-10-22T23:28:28.336Z,100557.27
2022-10-22T23:31:56.854Z,100553.00
2022-10-22T23:35:27.353Z,100556.48
2022-10-22T23:38:58.308Z,100563.32
2022-10-22T23:42:30.082Z,100570.66
2022-10-22T23:46:02.490Z,100568.52
2022-10-22T23:49:33.234Z,100563.70
2022-10-22T23:53:00.158Z,100570.42
2022-10-22T23:56:28.371Z,100567.50
2022-10-22T23:59:56.225Z,100569.16
